Time;durP1;ratioP1;P1;durP2;ratioP2;P2;SDS_P1;SDS_P2;PMS_P1;PMS_P2;Temp;Humidity;BMP_temperature;BMP_pressure;BME280_temperature;BME280_humidity;BME280_pressure;Samples;Min_cycle;Max_cycle;Signal;HPM_P1;HPM_P2
2023/01/12 00:00:03;;;;;;;;;;;;;;;;;;;;;
2023/01/12 00:02:32;;;;;;;0.00;0.00;;;;;;;8.79;100.00;99291.09;6246103;23;20024;-82
2023/01/12 00:05:01;;;;;;;0.00;0.00;;;;;;;8.89;100.00;99331.94;6217834;23;20015;-81
2023/01/12 00:07:27;;;;;;;0.00;0.00;;;;;;;8.69;100.00;99329.31;6219587;23;20018;-80
2023/01/12 00:09:53;;;;;;;0.00;0.00;;;;;;;8.95;100.00;99304.63;6210585;23;20651;-80
2023/01/12 00:12:38;;;;;;;0.00;0.00;;;;;;;8.95;100.00;99320.97;6216886;23;20023;-80
2023/01/12 00:15:04;;;;;;;0.00;0.00;;;;;;;8.90;100.00;99287.19;6206660;23;20318;-83
2023/01/12 00:17:30;;;;;;;0.00;0.00;;;;;;;8.82;100.00;99278.78;6214450;23;20000;-84
2023/01/12 00:20:23;;;;;;;0.00;0.00;;;;;;;8.80;100.00;99289.97;6223119;23;19995;-84
2023/01/12 00:23:23;;;;;;;0.00;0.00;;;;;;;8.91;100.00;99332.44;6226129;23;20011;-85
2023/01/12 00:25:52;;;;;;;0.00;0.00;;;;;;;8.96;100.00;99306.25;6221287;22;20046;-86
2023/01/12 00:28:32;;;;;;;0.00;0.00;;;;;;;8.79;100.00;99274.75;6240087;23;20012;-85
2023/01/12 00:31:23;;;;;;;0.00;0.00;;;;;;;8.91;100.00;99291.56;6235370;23;20000;-84
2023/01/12 00:33:51;;;;;;;0.00;0.00;;;;;;;8.87;100.00;99279.56;6231749;23;20000;-86
2023/01/12 00:36:18;;;;;;;0.00;0.00;;;;;;;8.85;100.00;99294.59;6230364;23;20008;-87
2023/01/12 00:38:43;;;;;;;0.00;0.00;;;;;;;8.89;100.00;99344.72;6229153;23;20003;-86
2023/01/12 00:47:18;;;;;;;0.00;0.00;;;;;;;8.87;100.00;99270.59;6227131;23;20023;-89
2023/01/12 00:49:49;;;;;;;0.00;0.00;;;;;;;8.99;100.00;99303.75;6211965;23;20013;-86
2023/01/12 00:52:31;;;;;;;0.00;0.00;;;;;;;8.88;100.00;99283.13;6194642;23;20024;-86
2023/01/12 00:55:04;;;;;;;0.00;0.00;;;;;;;8.88;100.00;99289.41;6195402;23;20028;-86
2023/01/12 00:57:30;;;;;;;0.00;0.00;;;;;;;8.96;100.00;99262.63;6220417;23;20005;-89
2023/01/12 01:00:27;;;;;;;;;;;;;;;;;;;;;
2023/01/12 01:03:21;;;;;;;0.00;0.00;;;;;;;8.82;100.00;99274.16;6218096;23;20024;-85
2023/01/12 01:05:50;;;;;;;0.00;0.00;;;;;;;8.86;100.00;99245.25;6218840;23;20005;-85
2023/01/12 01:08:17;;;;;;;0.00;0.00;;;;;;;8.87;100.00;99252.31;6215021;23;20005;-84
2023/01/12 01:10:44;;;;;;;0.00;0.00;;;;;;;8.93;100.00;99246.84;6218886;23;19996;-84
2023/01/12 01:13:19;;;;;;;;;;;;;;;;;;;;;
2023/01/12 01:16:09;;;;;;;0.00;0.00;;;;;;;9.02;100.00;99261.47;6221659;23;20068;-83
2023/01/12 01:18:42;;;;;;;0.00;0.00;;;;;;;9.07;100.00;99247.81;6220624;23;20001;-84
2023/01/12 01:21:19;;;;;;;0.00;0.00;;;;;;;9.16;100.00;99273.38;6196412;23;20015;-84
2023/01/12 01:24:24;;;;;;;;;;;;;;;;;;;;;
2023/01/12 01:26:43;;;;;;;0.00;0.00;;;;;;;9.07;100.00;99269.66;6214512;23;20004;-84
2023/01/12 01:29:28;;;;;;;0.00;0.00;;;;;;;9.08;100.00;99257.63;6194892;23;20009;-83
2023/01/12 01:32:07;;;;;;;;;;;;;;;;;;;;;
2023/01/12 01:34:42;;;;;;;0.00;0.00;;;;;;;8.98;100.00;99244.91;6217643;23;20024;-86
2023/01/12 01:37:29;;;;;;;0.00;0.00;;;;;;;9.06;100.00;99252.44;6220256;23;20008;-84
2023/01/12 01:40:02;;;;;;;0.10;0.10;;;;;;;9.14;100.00;99286.50;6213553;23;20005;-83
2023/01/12 01:42:41;;;;;;;0.00;0.00;;;;;;;9.04;100.00;99243.75;6194115;23;20020;-89
2023/01/12 01:45:19;;;;;;;0.00;0.00;;;;;;;9.21;100.00;99275.25;6222787;23;20000;-89
2023/01/12 01:48:05;;;;;;;0.10;0.10;;;;;;;9.02;100.00;99217.84;6215454;23;20004;-86
2023/01/12 01:50:42;;;;;;;0.00;0.00;;;;;;;9.18;100.00;99241.16;6218167;23;20004;-86
2023/01/12 01:53:18;;;;;;;0.00;0.00;;;;;;;9.04;100.00;99232.03;6216733;23;20000;-86
2023/01/12 01:56:10;;;;;;;0.00;0.00;;;;;;;9.29;100.00;99238.34;6219812;23;20138;-85
2023/01/12 02:01:45;;;;;;;0.00;0.00;;;;;;;9.14;100.00;99253.78;6208509;23;20423;-86
2023/01/12 02:04:11;;;;;;;0.00;0.00;;;;;;;9.19;100.00;99234.63;6224430;23;20039;-89
2023/01/12 02:06:39;;;;;;;0.00;0.00;;;;;;;9.15;100.00;99255.38;6216823;23;20005;-84
2023/01/12 02:09:26;;;;;;;0.00;0.00;;;;;;;9.19;100.00;99229.16;6220183;23;20095;-84
2023/01/12 02:17:47;;;;;;;0.00;0.00;;;;;;;9.33;100.00;99255.78;6216121;23;20099;-84
2023/01/12 02:20:39;;;;;;;0.00;0.00;;;;;;;9.25;100.00;99238.94;6216390;23;19997;-87
2023/01/12 02:23:40;;;;;;;;;;;;;;;;;;;;;
2023/01/12 02:26:27;;;;;;;;;;;;;;;;;;;;;
2023/01/12 02:29:24;;;;;;;;;;;;;;;;;;;;;
2023/01/12 02:32:10;;;;;;;0.00;0.00;;;;;;;9.34;100.00;99247.31;6214880;23;20088;-83
2023/01/12 02:35:01;;;;;;;0.00;0.00;;;;;;;9.28;100.00;99244.94;6209414;23;20061;-80
2023/01/12 02:37:50;;;;;;;0.00;0.00;;;;;;;9.34;100.00;99257.41;6209219;23;20007;-82
2023/01/12 02:40:35;;;;;;;0.00;0.00;;;;;;;9.36;100.00;99255.19;6204390;23;20008;-80
2023/01/12 02:43:12;;;;;;;;;;;;;;;9.36;100.00;99252.47;6211352;23;20029;-83
2023/01/12 02:46:10;;;;;;;0.00;0.00;;;;;;;9.35;100.00;99254.41;6219378;23;19912;-83
2023/01/12 02:48:50;;;;;;;0.10;0.10;;;;;;;9.28;100.00;99225.84;6216955;23;20001;-82
2023/01/12 02:51:33;;;;;;;0.00;0.00;;;;;;;9.37;100.00;99245.94;6216192;23;20713;-82
2023/01/12 02:54:05;;;;;;;0.10;0.10;;;;;;;9.34;100.00;99246.50;6215533;23;20004;-81
2023/01/12 02:56:38;;;;;;;0.00;0.00;;;;;;;9.30;100.00;99250.91;6210911;23;20155;-81
2023/01/12 02:59:10;;;;;;;0.00;0.00;;;;;;;9.27;100.00;99241.38;6214937;23;20449;-81
2023/01/12 03:01:47;;;;;;;0.00;0.00;;;;;;;9.30;100.00;99278.19;6212337;23;20108;-82
2023/01/12 03:04:15;;;;;;;0.00;0.00;;;;;;;9.28;100.00;99253.13;6216423;23;20005;-82
2023/01/12 03:07:06;;;;;;;0.00;0.00;;;;;;;9.26;100.00;99237.03;6214642;23;20028;-85
2023/01/12 03:10:01;;;;;;;;;;;;;;;;;;;;;
2023/01/12 03:12:54;;;;;;;0.00;0.00;;;;;;;9.35;100.00;99254.41;6215737;23;20368;-85
2023/01/12 03:15:25;;;;;;;0.00;0.00;;;;;;;9.17;100.00;99230.53;6205926;23;19996;-82
2023/01/12 03:18:10;;;;;;;0.00;0.00;;;;;;;9.34;100.00;99243.78;6216882;23;20004;-84
2023/01/12 03:20:40;;;;;;;;;;;;;;;9.41;100.00;99277.00;6213579;23;20011;-84
2023/01/12 03:23:14;;;;;;;0.00;0.00;;;;;;;9.29;100.00;99232.91;6217526;23;19960;-84
2023/01/12 03:25:44;;;;;;;0.00;0.00;;;;;;;9.28;100.00;99253.13;6213775;23;20016;-82
2023/01/12 03:28:15;;;;;;;0.00;0.00;;;;;;;9.19;100.00;99245.53;6219456;23;20027;-83
2023/01/12 03:30:53;;;;;;;0.10;0.10;;;;;;;9.36;100.00;99255.19;6218278;23;20012;-83
2023/01/12 03:33:37;;;;;;;0.00;0.00;;;;;;;9.39;100.00;99281.94;6217841;23;19996;-82
2023/01/12 03:36:14;;;;;;;0.10;0.10;;;;;;;9.40;100.00;99267.19;6214816;23;20008;-83
2023/01/12 03:39:07;;;;;;;0.00;0.00;;;;;;;9.34;100.00;99258.22;6213029;23;20028;-85
2023/01/12 03:41:54;;;;;;;0.10;0.10;;;;;;;9.33;100.00;99278.44;6218270;23;20680;-85
2023/01/12 03:44:43;;;;;;;0.00;0.00;;;;;;;9.35;100.00;99270.78;6212096;23;20027;-87
2023/01/12 03:47:29;;;;;;;0.00;0.00;;;;;;;9.46;100.00;99266.03;6187782;23;20024;-83
2023/01/12 03:50:10;;;;;;;0.00;0.00;;;;;;;9.29;100.00;99238.34;6215884;23;20050;-84
2023/01/12 03:52:41;;;;;;;0.00;0.00;;;;;;;9.27;100.00;99246.81;6215623;23;20016;-84
2023/01/12 03:55:23;;;;;;;;;;;;;;;;;;;;;
2023/01/12 03:57:51;;;;;;;0.00;0.00;;;;;;;9.26;100.00;99246.03;6214020;23;20091;-87
2023/01/12 04:00:19;;;;;;;0.00;0.00;;;;;;;9.41;100.00;99260.63;6217521;23;20007;-84
2023/01/12 04:03:07;;;;;;;0.10;0.10;;;;;;;9.46;100.00;99276.13;6216382;23;20009;-85
2023/01/12 04:05:52;;;;;;;0.00;0.00;;;;;;;9.26;100.00;99240.56;6216199;23;20004;-86
2023/01/12 04:08:18;;;;;;;0.00;0.00;;;;;;;9.28;100.00;99247.66;6216080;23;20000;-86
2023/01/12 04:12:08;;;;;;;0.00;0.00;;;;;;;9.43;100.00;99272.06;6219552;23;19999;-85
2023/01/12 04:13:49;;;;;;;0.00;0.00;;;;;;;9.33;100.00;99250.31;6219326;23;20509;-86
2023/01/12 04:16:18;;;;;;;0.00;0.00;;;;;;;9.37;100.00;99262.28;6218501;23;20008;-86
2023/01/12 04:19:01;;;;;;;0.00;0.00;;;;;;;9.40;100.00;99273.47;6218599;23;20024;-85
2023/01/12 04:24:13;;;;;;;0.00;0.00;;;;;;;9.52;100.00;99274.97;6217971;23;20443;-86
2023/01/12 04:26:51;;;;;;;;;;;;;;;;;;;;;
2023/01/12 04:29:49;;;;;;;0.00;0.00;;;;;;;9.30;100.00;99253.63;6218450;23;20024;-86
2023/01/12 04:32:17;;;;;;;0.00;0.00;;;;;;;9.52;100.00;99292.19;6190623;23;20019;-84
2023/01/12 04:34:52;;;;;;;;;;;;;;;;;;;;;
2023/01/12 04:37:55;;;;;;;0.00;0.00;;;;;;;9.26;100.00;99246.03;6220990;23;20020;-85
2023/01/12 04:40:20;;;;;;;0.00;0.00;;;;;;;9.33;100.00;99255.78;6215485;23;20009;-84
2023/01/12 04:43:07;;;;;;;0.00;0.00;;;;;;;9.51;100.00;99276.09;6211715;23;20008;-84
2023/01/12 04:45:42;;;;;;;0.00;0.00;;;;;;;9.33;100.00;99258.50;6215422;23;20016;-84
2023/01/12 04:48:18;;;;;;;0.00;0.00;;;;;;;9.41;100.00;99263.34;6212453;23;20004;-85
2023/01/12 04:50:53;;;;;;;;;;;;;;;;;;;;;
2023/01/12 04:53:28;;;;;;;0.00;0.00;;;;;;;9.34;100.00;99241.84;6214582;23;20083;-85
2023/01/12 04:55:54;;;;;;;0.00;0.00;;;;;;;9.40;100.00;99242.63;6210733;23;20083;-86
2023/01/12 04:58:46;;;;;;;;;;;;;;;;;;;;;
2023/01/12 05:01:49;;;;;;;0.00;0.00;;;;;;;9.40;100.00;99250.81;6216870;23;20455;-87
2023/01/12 05:04:17;;;;;;;0.00;0.00;;;;;;;9.35;100.00;99239.97;6183652;23;20102;-83
2023/01/12 05:06:53;;;;;;;;;;;;;;;;;;;;;
2023/01/12 05:12:14;;;;;;;0.00;0.00;;;;;;;9.48;100.00;99263.03;6210175;23;20028;-86
2023/01/12 05:14:43;;;;;;;0.00;0.00;;;;;;;9.38;100.00;99233.91;6215446;23;20016;-88
2023/01/12 05:17:08;;;;;;;0.00;0.00;;;;;;;9.38;100.00;99228.47;6213871;23;19996;-88
2023/01/12 05:19:47;;;;;;;0.00;0.00;;;;;;;9.51;100.00;99251.53;6214881;23;20001;-86
2023/01/12 05:22:17;;;;;;;0.10;0.10;;;;;;;9.42;100.00;99227.59;6212166;23;20008;-87
2023/01/12 05:24:43;;;;;;;0.00;0.00;;;;;;;9.50;100.00;99250.72;6214280;23;20027;-87
2023/01/12 05:27:26;;;;;;;0.00;0.00;;;;;;;9.43;100.00;99231.97;6216818;23;20004;-86
2023/01/12 05:29:52;;;;;;;0.00;0.00;;;;;;;9.51;100.00;99248.81;6215234;23;20005;-86
2023/01/12 05:32:27;;;;;;;;;;;;;;;;;;;;;
2023/01/12 05:35:13;;;;;;;0.00;0.00;;;;;;;9.36;100.00;99214.28;6221725;23;20355;-79
2023/01/12 05:37:39;;;;;;;0.00;0.00;;;;;;;9.35;100.00;99205.28;6208303;23;20874;-82
2023/01/12 05:40:09;;;;;;;0.00;0.00;;;;;;;9.35;100.00;99204.50;6216530;23;20005;-83
2023/01/12 05:45:24;;;;;;;0.10;0.10;;;;;;;9.46;100.00;99237.94;6213248;23;20159;-80
2023/01/12 05:48:37;;;;;;;0.00;0.00;;;;;;;9.37;100.00;99218.63;6215564;23;20012;-85
2023/01/12 05:51:23;;;;;;;0.10;0.10;;;;;;;9.47;100.00;99231.38;6219916;23;20011;-85
2023/01/12 05:53:51;;;;;;;0.00;0.00;;;;;;;9.43;100.00;99233.84;6219125;23;20099;-85
2023/01/12 05:56:31;;;;;;;;;;;;;;;;;;;;;
2023/01/12 05:59:20;;;;;;;0.00;0.00;;;;;;;9.39;100.00;99217.25;6219589;23;20028;-85
2023/01/12 06:01:48;;;;;;;0.10;0.10;;;;;;;9.55;100.00;99253.41;6203522;23;20004;-81
2023/01/12 06:04:26;;;;;;;;;;;;;;;;;;;;;
2023/01/12 06:07:21;;;;;;;0.10;0.10;;;;;;;9.38;100.00;99221.09;6209267;23;20080;-81
2023/01/12 06:09:52;;;;;;;0.00;0.00;;;;;;;9.36;100.00;99200.63;6211173;23;20004;-80
2023/01/12 06:15:04;;;;;;;0.00;0.00;;;;;;;9.42;100.00;99224.06;6216090;23;20010;-81
2023/01/12 06:17:29;;;;;;;0.00;0.00;;;;;;;9.58;100.00;99254.75;6214217;23;19996;-80
2023/01/12 06:19:57;;;;;;;0.00;0.00;;;;;;;9.55;100.00;99250.69;6188366;23;20016;-78
2023/01/12 06:22:32;;;;;;;;;;;;;;;;;;;;;
2023/01/12 06:24:58;;;;;;;0.00;0.00;;;;;;;9.50;100.00;99228.88;6214500;23;20088;-80
2023/01/12 06:27:30;;;;;;;0.00;0.00;;;;;;;9.41;100.00;99236.88;6210665;23;20028;-80
2023/01/12 06:29:55;;;;;;;0.00;0.00;;;;;;;9.55;100.00;99258.03;6211985;23;20009;-79
2023/01/12 06:32:21;;;;;;;0.00;0.00;;;;;;;9.63;100.00;99262.06;6182967;23;20085;-79
2023/01/12 06:35:01;;;;;;;0.10;0.10;;;;;;;9.59;100.00;99254.47;6211565;23;20089;-78
2023/01/12 06:37:29;;;;;;;0.00;0.00;;;;;;;9.44;100.00;99230.03;6208854;23;20007;-80
2023/01/12 06:39:55;;;;;;;0.00;0.00;;;;;;;9.50;100.00;99237.06;6210761;23;20003;-81
2023/01/12 06:42:30;;;;;;;0.00;0.00;;;;;;;9.44;100.00;99230.03;6209087;23;20075;-78
2023/01/12 06:44:57;;;;;;;0.00;0.00;;;;;;;9.51;100.00;99255.06;6211740;23;20023;-79
2023/01/12 06:47:24;;;;;;;0.00;0.00;;;;;;;9.55;100.00;99258.88;6209890;23;20013;-82
2023/01/12 06:49:52;;;;;;;0.00;0.00;;;;;;;9.52;100.00;99240.34;6213876;23;20040;-80
2023/01/12 06:52:28;;;;;;;0.00;0.00;;;;;;;9.48;100.00;99236.56;6208595;23;20087;-78
2023/01/12 06:55:03;;;;;;;0.00;0.00;;;;;;;9.55;100.00;99237.03;6211433;23;20092;-79
2023/01/12 06:57:29;;;;;;;0.00;0.00;;;;;;;9.59;100.00;99262.66;6209699;23;20000;-81
2023/01/12 06:59:55;;;;;;;0.00;0.00;;;;;;;9.63;100.00;99259.34;6214739;23;20028;-82
2023/01/12 07:02:21;;;;;;;0.00;0.00;;;;;;;9.47;100.00;99240.38;6214537;23;20092;-81
2023/01/12 07:04:47;;;;;;;0.00;0.00;;;;;;;9.44;100.00;99230.03;6212773;23;20308;-82
2023/01/12 07:07:21;;;;;;;0.00;0.00;;;;;;;9.49;100.00;99229.16;6215399;23;20063;-83
2023/01/12 07:09:49;;;;;;;0.00;0.00;;;;;;;9.47;100.00;99231.38;6213604;23;20066;-81
2023/01/12 07:12:14;;;;;;;0.00;0.00;;;;;;;9.56;100.00;99244.13;6212157;23;20091;-79
2023/01/12 07:14:40;;;;;;;0.00;0.00;;;;;;;9.57;100.00;99278.47;6213686;23;20415;-80
2023/01/12 07:17:05;;;;;;;0.00;0.00;;;;;;;9.58;100.00;99266.47;6210898;23;20059;-79
2023/01/12 07:19:42;;;;;;;0.00;0.00;;;;;;;9.56;100.00;99252.31;6189459;23;20009;-80
2023/01/12 07:22:16;;;;;;;0.00;0.00;;;;;;;9.54;100.00;99251.78;6212252;23;20092;-81
2023/01/12 07:24:41;;;;;;;;;;;;;;;9.66;100.00;99256.84;6216304;23;20004;-80
2023/01/12 07:27:14;;;;;;;0.00;0.00;;;;;;;9.52;100.00;99236.78;6188675;23;19912;-81
2023/01/12 07:29:45;;;;;;;0.00;0.00;;;;;;;9.60;100.00;99245.16;6184342;23;20031;-80
2023/01/12 07:32:10;;;;;;;0.00;0.00;;;;;;;9.69;100.00;99263.63;6216259;23;20450;-83
2023/01/12 07:34:36;;;;;;;0.00;0.00;;;;;;;9.61;100.00;99274.09;6212805;23;20004;-82
2023/01/12 07:37:11;;;;;;;;;;;;;;;;;;;;;
2023/01/12 07:40:09;;;;;;;0.00;0.00;;;;;;;9.57;100.00;99251.19;6210409;23;20491;-82
2023/01/12 07:42:42;;;;;;;0.00;0.00;;;;;;;9.52;100.00;99247.69;6213525;23;20505;-82
2023/01/12 07:45:10;;;;;;;0.00;0.00;;;;;;;9.66;100.00;99264.22;6210465;23;20042;-83
2023/01/12 07:47:46;;;;;;;;;;;;;;;;;;;;;
2023/01/12 07:50:12;;;;;;;0.00;0.00;;;;;;;9.60;100.00;99269.72;6211104;23;20079;-82
2023/01/12 07:52:40;;;;;;;0.00;0.00;;;;;;;9.60;100.00;99263.44;6165141;23;20016;-81
2023/01/12 07:55:05;;;;;;;0.00;0.00;;;;;;;9.65;100.00;99260.69;6206558;23;20036;-81
2023/01/12 07:57:31;;;;;;;0.00;0.00;;;;;;;9.65;100.00;99268.88;6214965;23;20009;-81
2023/01/12 07:59:56;;;;;;;0.00;0.00;;;;;;;9.62;100.00;99258.50;6160665;23;20367;-80
2023/01/12 08:02:25;;;;;;;0.00;0.00;;;;;;;9.64;100.00;99280.88;6183025;23;20099;-79
2023/01/12 08:04:58;;;;;;;0.00;0.00;;;;;;;9.54;100.00;99246.31;6186966;23;20070;-80
2023/01/12 08:07:26;;;;;;;0.00;0.00;;;;;;;9.57;100.00;99251.19;6210516;23;20088;-81
2023/01/12 08:09:51;;;;;;;0.00;0.00;;;;;;;9.68;100.00;99278.38;6210462;23;20039;-79
2023/01/12 08:12:17;;;;;;;0.00;0.00;;;;;;;9.71;100.00;99275.06;6186175;23;20370;-82
2023/01/12 08:25:56;;;;;;;0.00;0.00;;;;;;;9.79;100.00;99274.44;6070587;23;20038;-83
2023/01/12 08:36:53;;;;;;;;;;;;;;;;;;;;;
2023/01/12 09:01:08;;;;;;;0.00;0.00;;;;;;;9.87;100.00;99290.22;5794016;24;20046;-82
2023/01/12 09:04:05;;;;;;;0.00;0.00;;;;;;;9.69;100.00;99252.72;5817397;24;20049;-82
2023/01/12 09:09:46;;;;;;;0.00;0.00;;;;;;;9.83;100.00;99280.13;5987203;23;20041;-82
2023/01/12 09:12:27;;;;;;;;;;;;;;;;;;;;;
2023/01/12 09:14:55;;;;;;;0.00;0.00;;;;;;;9.73;100.00;99264.69;5991606;23;20098;-81
2023/01/12 09:17:48;;;;;;;0.00;0.00;;;;;;;9.79;100.00;99263.53;6013035;23;20332;-81
2023/01/12 09:20:34;;;;;;;0.00;0.00;;;;;;;9.91;100.00;99265.88;5995609;23;20039;-82
2023/01/12 09:26:30;;;;;;;0.00;0.00;;;;;;;9.70;100.00;99255.16;6031043;23;20003;-81
2023/01/12 09:28:58;;;;;;;0.00;0.00;;;;;;;9.85;100.00;99284.22;6115517;23;20006;-82
2023/01/12 09:31:28;;;;;;;0.00;0.00;;;;;;;9.86;100.00;99261.28;6161255;23;20421;-80
2023/01/12 09:33:56;;;;;;;0.00;0.00;;;;;;;9.87;100.00;99246.53;6181564;23;20072;-81
2023/01/12 09:36:38;;;;;;;0.00;0.00;;;;;;;9.76;100.00;99236.81;6158686;23;19997;-81
2023/01/12 09:39:34;;;;;;;;;;;;;;;;;;;;;
2023/01/12 09:49:32;;;;;;;0.00;0.00;;;;;;;9.83;100.00;99252.84;6186760;23;20036;-82
2023/01/12 09:52:32;;;;;;;0.00;0.00;;;;;;;9.74;100.00;99233.56;6165080;23;20005;-81
2023/01/12 09:55:01;;;;;;;0.00;0.00;;;;;;;9.88;100.00;99289.09;6148946;23;20001;-81
2023/01/12 09:57:54;;;;;;;0.00;0.00;;;;;;;10.01;100.00;99270.41;6158406;23;20025;-81
2023/01/12 10:00:38;;;;;;;;;;;;;;;;;;;;;
2023/01/12 10:06:23;;;;;;;0.00;0.00;;;;;;;9.90;100.00;99265.06;6166499;23;20444;-82
2023/01/12 10:09:17;;;;;;;0.00;0.00;;;;;;;9.91;100.00;99250.28;6137912;23;20012;-81
2023/01/12 10:12:08;;;;;;;0.00;0.00;;;;;;;10.06;100.00;99279.38;6154901;23;20009;-82
2023/01/12 10:22:14;;;;;;;;;;;;;;;;;;;;;
2023/01/12 10:25:01;;;;;;;0.00;0.00;;;;;;;9.94;100.00;99238.81;6038634;23;20089;-82
2023/01/12 10:34:10;;;;;;;0.00;0.00;;;;;;;10.23;100.00;99240.63;5980516;23;20012;-85
2023/01/12 10:44:37;;;;;;;0.00;0.00;;;;;;;10.33;100.00;99238.88;5958084;24;20016;-83
2023/01/12 10:51:51;;;;;;;;;;;;;;;;;;;;;
2023/01/12 10:58:34;;;;;;;;;;;;;;;;;;;;;
2023/01/12 11:01:33;;;;;;;0.00;0.00;;;;;;;10.46;100.00;99210.84;5862281;24;20173;-81
2023/01/12 11:12:48;;;;;;;;;;;;;;;;;;;;;
2023/01/12 11:19:11;;;;;;;;;;;;;;;;;;;;;
2023/01/12 11:23:01;;;;;;;;;;;;;;;;;;;;;
2023/01/12 11:30:21;;;;;;;;;;;;;;;;;;;;;
2023/01/12 11:40:58;;;;;;;0.00;0.00;;;;;;;10.79;100.00;99202.69;5929063;23;20013;-82
2023/01/12 11:58:33;;;;;;;0.10;0.10;;;;;;;10.63;100.00;99167.41;5790230;24;20472;-82
2023/01/12 12:05:04;;;;;;;0.10;0.10;;;;;;;10.52;100.00;99159.66;5848808;24;20069;-83
2023/01/12 12:08:18;;;;;;;0.00;0.00;;;;;;;10.55;100.00;99159.88;5799736;24;20061;-84
2023/01/12 12:29:05;;;;;;;0.00;0.00;;;;;;;10.54;100.00;99158.28;6014030;23;20016;-83
2023/01/12 12:32:47;;;;;;;0.00;0.00;;;;;;;10.56;100.00;99128.72;6013254;23;20034;-84
2023/01/12 12:39:52;;;;;;;0.00;0.00;;;;;;;10.53;100.00;99117.53;6036905;23;20744;-82
2023/01/12 13:03:33;;;;;;;;;;;;;;;;;;;;;
2023/01/12 13:27:00;;;;;;;0.00;0.00;;;;;;;10.09;100.00;98988.41;5956765;23;20050;-81
2023/01/12 13:29:36;;;;;;;0.00;0.00;;;;;;;10.28;100.00;99035.66;5995458;23;20134;-80
2023/01/12 13:32:34;;;;;;;0.00;0.00;;;;;;;10.20;100.00;99039.06;6097442;23;20021;-80
2023/01/12 13:35:00;;;;;;;0.00;0.00;;;;;;;10.07;100.00;98996.09;6099443;23;20036;-80
2023/01/12 13:37:44;;;;;;;0.00;0.00;;;;;;;10.11;100.00;99013.53;6143587;23;20005;-81
2023/01/12 13:40:27;;;;;;;0.00;0.00;;;;;;;10.23;100.00;99010.31;6158933;23;20001;-81
2023/01/12 14:04:01;;;;;;;0.00;0.00;;;;;;;10.36;100.00;99057.97;6153348;23;20068;-81
2023/01/12 14:07:15;;;;;;;;;;;;;;;;;;;;;
2023/01/12 14:13:38;;;;;;;;;;;;;;;;;;;;;
2023/01/12 16:33:06;;;;;;;0.10;0.10;;;;;;;8.11;100.00;99167.19;6125825;23;20029;-81
2023/01/12 16:46:53;;;;;;;0.00;0.00;;;;;;;8.00;100.00;99171.06;5867808;24;20014;-77
2023/01/12 16:53:34;;;;;;;0.00;0.00;;;;;;;7.63;100.00;99194.88;5922756;23;20692;-81
2023/01/12 17:00:02;;;;;;;0.10;0.10;;;;;;;7.48;100.00;99214.78;5914205;23;20144;-80
2023/01/12 17:02:49;;;;;;;0.00;0.00;;;;;;;7.46;100.00;99199.81;6031721;23;20069;-79
2023/01/12 17:05:44;;;;;;;0.00;0.00;;;;;;;7.51;100.00;99219.66;6021565;23;20140;-80
2023/01/12 17:09:01;;;;;;;0.10;0.10;;;;;;;7.41;100.00;99208.81;6011126;23;20019;-81
2023/01/12 17:12:01;;;;;;;;;;;;;;;;;;;;;
2023/01/12 17:17:37;;;;;;;0.00;0.00;;;;;;;7.13;100.00;99213.72;6039762;23;20441;-82
2023/01/12 17:20:23;;;;;;;0.00;0.00;;;;;;;6.99;100.00;99208.03;6043447;23;20010;-81
2023/01/12 17:23:06;;;;;;;0.00;0.00;;;;;;;6.81;100.00;99197.69;6145177;23;20021;-80
2023/01/12 17:25:39;;;;;;;0.00;0.00;;;;;;;6.76;100.00;99201.25;6154942;23;20060;-80
2023/01/12 17:28:10;;;;;;;0.10;0.10;;;;;;;6.78;100.00;99211.84;6159195;23;20021;-80
2023/01/12 17:31:32;;;;;;;;;;;;;;;;;;;;;
2023/01/12 17:33:59;;;;;;;0.10;0.10;;;;;;;6.41;100.00;99178.38;6175741;23;20052;-81
2023/01/12 17:36:24;;;;;;;0.00;0.00;;;;;;;6.43;100.00;99189.78;6161164;23;20344;-81
2023/01/12 17:39:19;;;;;;;;;;;;;;;;;;;;;
2023/01/12 17:45:15;;;;;;;0.10;0.10;;;;;;;6.46;100.00;99205.53;6185872;23;20019;-80
2023/01/12 17:48:36;;;;;;;;;;;;;;;;;;;;;
2023/01/12 17:51:13;;;;;;;;;;;;;;;;;;;;;
2023/01/12 17:53:39;;;;;;;0.10;0.10;;;;;;;6.62;100.00;99233.53;6181241;23;20084;-81
2023/01/12 17:56:44;;;;;;;0.00;0.00;;;;;;;6.70;100.00;99237.66;6152314;23;20419;-78
2023/01/12 18:03:04;;;;;;;;;;;;;;;;;;;;;
2023/01/12 18:06:15;;;;;;;0.00;0.00;;;;;;;6.57;100.00;99243.56;6120852;23;20092;-82
2023/01/12 18:20:52;;;;;;;;;;;;;;;;;;;;;
2023/01/12 18:42:48;;;;;;;0.00;0.00;;;;;;;6.04;100.00;99224.69;5728866;24;20017;-79
2023/01/12 18:43:45;;;;;;;0.00;0.00;;;;;;;6.07;100.00;99230.38;5779353;24;20479;-79
2023/01/12 18:56:24;;;;;;;;;;;;;;;;;;;;;
2023/01/12 18:59:04;;;;;;;;;;;;;;;;;;;;;
2023/01/12 19:01:38;;;;;;;0.10;0.10;;;;;;;6.85;100.00;99238.72;6219267;23;20403;-81
2023/01/12 19:11:18;;;;;;;0.10;0.10;;;;;;;6.56;100.00;99252.81;6215768;23;20501;-80
2023/01/12 19:30:20;;;;;;;;;;;;;;;;;;;;;
2023/01/12 19:32:58;;;;;;;0.00;0.00;;;;;;;6.14;100.00;99267.34;6127759;23;20080;-78
2023/01/12 19:35:35;;;;;;;0.00;0.00;;;;;;;6.06;100.00;99269.47;6189310;23;20011;-78
2023/01/12 19:38:01;;;;;;;0.00;0.00;;;;;;;5.99;100.00;99262.66;6216833;23;20013;-79
2023/01/12 19:40:44;;;;;;;0.00;0.00;;;;;;;5.93;100.00;99250.94;6210999;23;20339;-79
2023/01/12 19:43:19;;;;;;;0.10;0.10;;;;;;;5.96;100.00;99261.25;6212069;23;20015;-78
2023/01/12 19:46:01;;;;;;;;;;;;;;;;;;;;;
2023/01/12 19:48:55;;;;;;;;;;;;;;;;;;;;;
2023/01/12 19:51:49;;;;;;;0.00;0.00;;;;;;;5.89;100.00;99233.56;6216094;23;20461;-78
2023/01/12 19:54:46;;;;;;;0.00;0.00;;;;;;;5.91;100.00;99236.81;6191744;23;20009;-80
2023/01/12 19:57:11;;;;;;;0.00;0.00;;;;;;;5.89;100.00;99228.13;6211267;23;19997;-78
2023/01/12 19:59:47;;;;;;;0.10;0.10;;;;;;;5.89;100.00;99255.25;6209720;23;20008;-78
2023/01/12 20:02:13;;;;;;;0.00;0.00;;;;;;;5.98;100.00;99247.47;6188908;23;20005;-80
2023/01/12 20:04:44;;;;;;;0.00;0.00;;;;;;;5.88;100.00;99226.47;6207897;23;20066;-79
2023/01/12 20:07:09;;;;;;;0.00;0.00;;;;;;;5.88;100.00;99221.06;6191784;23;20023;-78
2023/01/12 20:09:45;;;;;;;0.00;0.00;;;;;;;5.89;100.00;99228.13;6217289;23;20120;-79
2023/01/12 20:12:10;;;;;;;0.00;0.00;;;;;;;5.87;100.00;99224.84;6189047;23;20087;-80
2023/01/12 20:14:36;;;;;;;0.00;0.00;;;;;;;5.94;100.00;99252.56;6191415;23;20008;-81
2023/01/12 20:17:01;;;;;;;0.10;0.10;;;;;;;5.94;100.00;99238.97;6213558;23;20001;-79
2023/01/12 20:19:30;;;;;;;0.00;0.00;;;;;;;5.97;100.00;99235.78;6215052;23;20305;-81
2023/01/12 20:21:55;;;;;;;0.00;0.00;;;;;;;5.90;100.00;99229.75;6207852;23;20001;-78
2023/01/12 20:24:27;;;;;;;0.10;0.10;;;;;;;5.95;100.00;99252.28;6185992;23;20501;-78
2023/01/12 20:26:52;;;;;;;0.00;0.00;;;;;;;5.84;100.00;99231.63;6207541;23;20035;-78
2023/01/12 20:29:22;;;;;;;0.08;0.08;;;;;;;5.87;100.00;99243.84;6184561;23;20008;-79
2023/01/12 20:31:51;;;;;;;0.00;0.00;;;;;;;5.97;100.00;99245.78;6187584;23;20011;-80
2023/01/12 20:34:17;;;;;;;0.00;0.00;;;;;;;5.89;100.00;99233.56;6208827;23;20039;-79
2023/01/12 20:36:43;;;;;;;0.00;0.00;;;;;;;6.04;100.00;99236.34;6187114;23;20713;-80
2023/01/12 20:39:09;;;;;;;0.00;0.00;;;;;;;6.23;100.00;99233.16;6208187;23;20013;-79
2023/01/12 20:41:36;;;;;;;0.00;0.00;;;;;;;6.40;100.00;99247.34;6213394;23;20449;-78
2023/01/12 20:44:17;;;;;;;;;;;;;;;;;;;;;
2023/01/12 20:47:00;;;;;;;0.00;0.00;;;;;;;6.46;100.00;99235.41;6214571;23;20075;-78
2023/01/12 20:50:24;;;;;;;0.00;0.00;;;;;;;6.68;100.00;99256.09;6210987;23;20005;-77
2023/01/12 20:52:53;;;;;;;0.00;0.00;;;;;;;6.57;100.00;99227.28;6217964;23;20086;-79
2023/01/12 20:55:21;;;;;;;0.00;0.00;;;;;;;6.49;100.00;99257.69;6210854;23;20009;-80
2023/01/12 20:57:49;;;;;;;0.00;0.00;;;;;;;6.16;100.00;99249.69;6181699;23;20009;-81
2023/01/12 21:00:25;;;;;;;;;;;;;;;;;;;;;
2023/01/12 21:02:50;;;;;;;0.00;0.00;;;;;;;5.81;100.00;99274.72;6211200;23;20120;-79
2023/01/12 21:05:16;;;;;;;0.00;0.00;;;;;;;5.51;100.00;99259.91;6186790;23;20056;-79
2023/01/12 21:08:06;;;;;;;;;;;;;;;;;;;;;
2023/01/12 21:10:40;;;;;;;0.00;0.00;;;;;;;5.25;100.00;99268.66;6211197;23;20088;-81
2023/01/12 21:13:36;;;;;;;;;;;;;;;;;;;;;
2023/01/12 21:16:41;;;;;;;0.00;0.00;;;;;;;5.34;100.00;99266.28;6213945;23;20031;-80
2023/01/12 21:19:16;;;;;;;0.00;0.00;;;;;;;5.44;100.00;99251.19;6208190;23;20012;-81
2023/01/12 21:21:49;;;;;;;0.00;0.00;;;;;;;5.66;100.00;99267.31;6207941;23;20028;-79
2023/01/12 21:24:25;;;;;;;;;;;;;;;;;;;;;
2023/01/12 21:26:52;;;;;;;0.00;0.00;;;;;;;5.80;100.00;99257.66;6185161;23;20749;-78
2023/01/12 21:29:25;;;;;;;0.00;0.00;;;;;;;5.93;100.00;99264.50;6210680;23;20008;-79